Weather observations for the past three days for
Astoria, Astoria Regional Airport
| Date | Time (pdt) | Wind (kph) | Vis. (km) | Weather | Sky Cond. | Temperature (ºC) | Relative Humidity | Wind Chill (°C) | Heat Index (°C) | Pressure | Precipitation (cm) | ||||||
|---|---|---|---|---|---|---|---|---|---|---|---|---|---|---|---|---|---|
| Air | Dwpt | 6 hour | altimeter (cm) | sea level (mb) | 1 hr | 3 hr | 6 hr | ||||||||||
| Max. | Min. | ||||||||||||||||
| 06 | 04:55 | W 7 | 16.09 | Overcast | OVC019 | 11.7 | 8.9 | 12.8 | 11.7 | 83% | 76.48 | 1019.6 | |||||
| 06 | 03:55 | W 7 | 16.09 | Overcast | OVC016 | 12.2 | 8.9 | 80% | 76.45 | 1019.1 | |||||||
| 06 | 02:55 | SW 7 | 16.09 | Overcast | OVC016 | 12.2 | 9.4 | 83% | 76.43 | 1018.8 | |||||||
| 06 | 01:55 | SW 7 | 16.09 | Overcast | OVC015 | 12.2 | 9.4 | 83% | 76.4 | 1018.6 | |||||||
| 06 | 00:55 | SW 6 | 16.09 | Overcast | OVC015 | 12.8 | 9.4 | 80% | 76.38 | 1018.2 | |||||||
| 05 | 23:55 | SW 7 | 16.09 | Overcast | OVC016 | 12.8 | 9.4 | 80% | 76.35 | 1017.9 | |||||||
| 05 | 22:55 | Calm | 16.09 | Overcast | OVC016 | 12.8 | 9.4 | 14.4 | 12.8 | 80% | 76.33 | 1017.6 | |||||
| 05 | 21:55 | Calm | 16.09 | Overcast | OVC018 | 12.8 | 10.6 | 87% | 76.33 | 1017.4 | |||||||
| 05 | 20:55 | SW 6 | 16.09 | Overcast | OVC020 | 12.8 | 10 | 83% | 76.3 | 1017.1 | |||||||
| 05 | 19:55 | SW 9 | 16.09 | Overcast | OVC020 | 13.3 | 10.6 | 84% | 76.25 | 1016.6 | |||||||
| 05 | 18:55 | W 9 | 16.09 | Overcast | OVC022 | 13.9 | 10 | 78% | 76.23 | 1016.3 | |||||||
| 05 | 17:55 | Calm | 16.09 | Overcast | OVC021 | 13.9 | 10 | 78% | 76.23 | 1016.3 | |||||||
| 05 | 16:55 | W 9 | 16.09 | Overcast | FEW018 OVC024 | 14.4 | 10.6 | 15 | 13.9 | 78% | 76.25 | 1016.6 | |||||
| 05 | 15:55 | W 13 | 16.09 | Overcast | FEW019 OVC024 | 14.4 | 10 | 75% | 76.28 | 1016.9 | |||||||
| 05 | 14:55 | W 11 | 16.09 | Overcast | OVC023 | 14.4 | 10 | 75% | 76.28 | 1017.0 | |||||||
| 05 | 13:55 | SW 17 | 16.09 | Overcast | OVC023 | 14.4 | 9.4 | 72% | 76.3 | 1017.2 | |||||||
| 05 | 12:55 | SW 15 | 16.09 | Overcast | OVC022 | 14.4 | 9.4 | 72% | 76.28 | 1017.0 | |||||||
| 05 | 11:55 | SW 15 | 16.09 | Overcast | OVC021 | 13.9 | 10 | 78% | 76.28 | 1016.9 | |||||||
| 05 | 10:55 | Vrbl 11 | 16.09 | Overcast | OVC020 | 13.9 | 9.4 | 13.9 | 12.2 | 74% | 76.28 | 1016.7 | |||||
| 05 | 09:55 | Vrbl 9 | 16.09 | Overcast | OVC020 | 13.3 | 9.4 | 77% | 76.25 | 1016.5 | |||||||
| 05 | 08:55 | S 6 | 16.09 | Overcast | FEW015 OVC021 | 12.8 | 8.9 | 77% | 76.2 | 1015.9 | |||||||
| 05 | 07:55 | S 7 | 16.09 | Overcast | OVC019 | 12.8 | 10 | 83% | 76.17 | 1015.6 | |||||||
| 05 | 06:55 | S 6 | 16.09 | Overcast | OVC018 | 12.8 | 9.4 | 80% | 76.15 | 1015.1 | |||||||
| 05 | 05:55 | S 9 | 16.09 | Overcast | OVC017 | 12.8 | 9.4 | 80% | 76.12 | 1014.8 | |||||||
| 05 | 04:55 | S 11 | 16.09 | Overcast | OVC019 | 12.8 | 9.4 | 12.8 | 12.2 | 80% | 76.1 | 1014.4 | |||||
| 05 | 03:55 | S 9 | 16.09 | Overcast | OVC018 | 12.8 | 9.4 | 80% | 76.1 | 1014.4 | |||||||
| 05 | 02:55 | S 11 | 16.09 | Overcast | OVC017 | 12.8 | 9.4 | 80% | 76.07 | 1014.3 | |||||||
| 05 | 01:55 | SW 11 | 16.09 | Overcast | OVC016 | 12.8 | 9.4 | 80% | 76.05 | 1013.9 | |||||||
| 05 | 00:55 | SW 13 | 16.09 | Overcast | OVC016 | 12.8 | 10 | 83% | 76.05 | 1013.9 | |||||||
| 04 | 23:55 | S 11 | 16.09 | Overcast | OVC015 | 12.8 | 9.4 | 80% | 76.02 | 1013.6 | |||||||
| 04 | 22:55 | SW 15 G 30 | 16.09 | Overcast | OVC013 | 12.8 | 10 | 13.9 | 12.2 | 83% | 76 | 1013.2 | |||||
| 04 | 21:55 | SW 15 | 16.09 | Overcast | OVC012 | 12.2 | 10 | 87% | 76.02 | 1013.4 | |||||||
| 04 | 20:55 | SW 17 | 16.09 | Overcast | OVC014 | 12.8 | 10 | 83% | 76 | 1013.0 | |||||||
| 04 | 19:55 | SW 19 G 31 | 16.09 | Overcast | OVC012 | 12.8 | 10 | 83% | 75.97 | 1012.8 | |||||||
| 04 | 18:55 | SW 19 G 33 | 16.09 | Mostly Cloudy | BKN013 | 13.3 | 10.6 | 84% | 75.97 | 1012.8 | |||||||
| 04 | 17:55 | SW 20 G 48 | 16.09 | Partly Cloudy | SCT012 | 13.9 | 10.6 | 81% | 76 | 1013.0 | |||||||
| 04 | 16:55 | SW 26 G 52 | 16.09 | Mostly Cloudy | BKN011 | 14.4 | 10.6 | 16.1 | 14.4 | 78% | 75.97 | 1012.9 | |||||
| 04 | 15:55 | SW 28 G 50 | 16.09 | Light Rain | FEW012 | 15 | 11.1 | 78% | 75.97 | 1012.9 | |||||||
| 04 | 14:55 | SW 30 G 57 | 16.09 | Fair | CLR | 15.6 | 11.1 | 75% | 76 | 1013.2 | |||||||
| 04 | 13:55 | SW 26 G 46 | 16.09 | Fair | CLR | 16.1 | 11.1 | 72% | 76 | 1013.3 | |||||||
| 04 | 12:55 | SW 28 G 46 | 16.09 | Fair | CLR | 16.1 | 11.1 | 72% | 76.02 | 1013.3 | |||||||
| 04 | 11:55 | SW 30 G 48 | 16.09 | Fair | CLR | 15.6 | 10.6 | 72% | 76.02 | 1013.5 | |||||||
| 04 | 10:55 | SW 28 G 37 | 16.09 | Fair | CLR | 15.6 | 11.1 | 15.6 | 11.7 | 75% | 76 | 1013.3 | |||||
| 04 | 09:55 | SW 15 | 16.09 | Mostly Cloudy | BKN014 | 15 | 10.6 | 75% | 76 | 1013.1 | |||||||
| 04 | 08:55 | SW 15 G 37 | 16.09 | Overcast | OVC012 | 12.8 | 10 | 83% | 75.97 | 1012.9 | |||||||
| 04 | 07:55 | SW 13 | 16.09 | Overcast | OVC010 | 12.2 | 10 | 87% | 75.95 | 1012.6 | |||||||
| 04 | 06:55 | SW 15 G 31 | 16.09 | Overcast | OVC009 | 12.2 | 10 | 87% | 75.92 | 1012.1 | |||||||
| 04 | 05:55 | S 15 G 31 | 16.09 | Overcast | OVC009 | 11.7 | 10 | 89% | 75.9 | 1011.7 | |||||||
| 04 | 04:55 | SW 15 | 14.48 | Overcast | OVC010 | 11.7 | 10 | 13.9 | 11.1 | 89% | 75.87 | 1011.3 | |||||
| 04 | 03:55 | SW 11 | 12.87 | Overcast | OVC008 | 11.7 | 10 | 89% | 75.84 | 1011.0 | |||||||
| 04 | 02:55 | SW 9 | 14.48 | Mostly Cloudy | BKN007 | 11.7 | 10.6 | 93% | 75.82 | 1010.6 | |||||||
| 04 | 01:55 | S 7 | 14.48 | Partly Cloudy | SCT006 | 11.7 | 10.6 | 93% | 75.79 | 1010.4 | |||||||
| 04 | 00:55 | S 15 G 33 | 14.48 | Overcast | OVC005 | 11.7 | 10.6 | 93% | 75.77 | 1010.2 | |||||||
| 03 | 23:55 | S 17 G 28 | 16.09 | A Few Clouds | FEW006 | 11.7 | 10.6 | 93% | 75.74 | 1009.7 | |||||||
| 03 | 22:55 | SW 22 G 39 | 14.48 | Fair | CLR | 13.9 | 10 | 24.4 | 13.9 | 78% | 75.69 | 1009.1 | |||||
| 03 | 21:55 | S 6 | 16.09 | Fair | CLR | 16.7 | 10 | 65% | 75.64 | 1008.4 | |||||||
| 03 | 20:55 | N 6 | 16.09 | Fair | CLR | 18.9 | 10.6 | 59% | 75.62 | 1008.0 | |||||||
| 03 | 19:55 | NW 20 | 16.09 | Fair | CLR | 22.2 | 8.9 | 43% | 75.57 | 1007.4 | |||||||
| 03 | 18:55 | NW 24 | 16.09 | Fair | CLR | 22.8 | 10 | 44% | 75.57 | 1007.4 | |||||||
| 03 | 17:55 | NW 26 | 16.09 | Fair | CLR | 23.3 | 11.1 | 46% | 75.59 | 1007.7 | |||||||
| 03 | 16:55 | NW 28 | 16.09 | Fair | CLR | 24.4 | 11.1 | 27.8 | 23.3 | 43% | 26 | 75.62 | 1008.0 | ||||
| 03 | 15:55 | NW 22 | 16.09 | Fair | CLR | 26.7 | 12.2 | 41% | 27 | 75.64 | 1008.4 | ||||||
| 03 | 14:55 | NW 17 | 16.09 | Fair | CLR | 27.2 | 12.8 | 41% | 27 | 75.69 | 1009.1 | ||||||
| 03 | 13:55 | N 13 | 16.09 | Fair | CLR | 26.1 | 12.2 | 42% | 26 | 75.72 | 1009.4 | ||||||
| 03 | 12:55 | N 15 | 16.09 | Fair | CLR | 23.3 | 13.3 | 54% | 75.77 | 1010.2 | |||||||
| 03 | 11:55 | N 13 | 16.09 | Fair | CLR | 25.6 | 11.7 | 42% | 26 | 75.82 | 1010.7 | ||||||
| 03 | 10:55 | NE 17 | 16.09 | Fair | CLR | 25 | 10.6 | 25 | 9.4 | 40% | 26 | 75.84 | 1011.0 | ||||
| 03 | 09:55 | N 7 | 16.09 | Fair | CLR | 22.8 | 11.1 | 48% | 75.87 | 1011.3 | |||||||
| 03 | 08:55 | E 6 | 16.09 | Fair | CLR | 20.6 | 12.2 | 59% | 75.87 | 1011.4 | |||||||
| 03 | 07:55 | Calm | 16.09 | Fair | CLR | 15.6 | 11.1 | 75% | 75.87 | 1011.5 | |||||||
| 03 | 06:55 | Calm | 16.09 | Fair | CLR | 12.2 | 10 | 87% | 75.84 | 1011.2 | |||||||
| 03 | 05:55 | E 9 | 14.48 | Fair | CLR | 10.6 | 9.4 | 92% | 75.84 | 1011.1 | |||||||
| Date | Time (pdt) | Wind (kph) | Vis. (km) | Weather | Sky Cond. | Air | Dwpt | Max. | Min. | Relative Humidity | Wind Chill (°C) | Heat Index (°C) | altimeter (cm) | sea level (mb) | 1 hr | 3 hr | 6 hr |
| 6 hour | |||||||||||||||||
| Temperature (ºC) | Pressure | Precipitation (cm) | |||||||||||||||